Kanavis, Iran
Current Conditions -  °F | °C
As of 11:00 PM on Tuesday 27 Jan 2015 (Local Time) from OIMM Reporting Station
Haze Haze  
Wind Chill: 30°   Ceiling: Unl
Heat Index: 36°   Visibility: 3mi
Dew Point: 30°   Wind: 7mph
Humidity: 81%   Direction: 130°SE
Pressure: 30.09"   Gusts: NA
Location:  36.27°N, 59.89°E
Report Text: OIMM 271900Z 13006KT 5000 BR FEW020 SCT100 02/M01 Q1019 A3010
Loading
Personal Weather Stations






























Interactive Weather Map New forecast layout! Learn more

10-Day Weather Forecast

Advertisements
Track Severe Weather on mobile